Time;durP1;ratioP1;P1;durP2;ratioP2;P2;SDS_P1;SDS_P2;PMS_P1;PMS_P2;Temp;Humidity;BMP_temperature;BMP_pressure;BME280_temperature;BME280_humidity;BME280_pressure;Samples;Min_cycle;Max_cycle;Signal;HPM_P1;HPM_P2
2021/11/22 00:01:17;;;;;;;;;;;5.80;99.90;;;;;;5007950;28;20213;-66
2021/11/22 00:03:43;;;;;;;;;;;5.80;99.90;;;;;;5007448;28;20340;-65
2021/11/22 00:06:08;;;;;;;;;;;5.80;99.90;;;;;;5011233;28;19917;-64
2021/11/22 00:08:34;;;;;;;;;;;5.80;99.90;;;;;;5003706;28;19940;-64
2021/11/22 00:10:59;;;;;;;;;;;5.80;99.90;;;;;;5006515;28;19917;-66
2021/11/22 00:13:25;;;;;;;;;;;5.80;99.90;;;;;;5007643;28;19925;-66
2021/11/22 00:15:52;;;;;;;;;;;5.80;99.90;;;;;;5007547;28;19913;-67
2021/11/22 00:18:18;;;;;;;;;;;5.80;99.90;;;;;;4992470;28;19977;-65
2021/11/22 00:20:43;;;;;;;;;;;5.80;99.90;;;;;;5013703;28;19913;-66
2021/11/22 00:23:09;;;;;;;;;;;5.80;99.90;;;;;;5012973;28;19921;-65
2021/11/22 00:25:35;;;;;;;;;;;5.80;99.90;;;;;;5008874;28;19927;-66
2021/11/22 00:28:00;;;;;;;;;;;5.70;99.90;;;;;;5000689;28;19914;-66
2021/11/22 00:30:27;;;;;;;;;;;5.70;99.90;;;;;;5000434;28;19933;-68
2021/11/22 00:32:52;;;;;;;;;;;5.70;99.90;;;;;;5017239;28;19921;-66
2021/11/22 00:35:18;;;;;;;;;;;5.70;99.90;;;;;;5012104;28;19914;-64
2021/11/22 00:37:45;;;;;;;;;;;5.70;99.90;;;;;;5009092;28;19909;-66
2021/11/22 00:40:12;;;;;;;;;;;5.70;99.90;;;;;;5001025;28;19960;-67
2021/11/22 00:42:38;;;;;;;;;;;5.70;99.90;;;;;;5007336;28;19955;-67
2021/11/22 00:45:05;;;;;;;;;;;5.70;99.90;;;;;;5007794;28;20377;-67
2021/11/22 00:47:30;;;;;;;;;;;5.70;99.90;;;;;;5007328;28;19921;-65
2021/11/22 00:49:56;;;;;;;;;;;5.70;99.90;;;;;;4996544;28;19960;-65
2021/11/22 00:52:22;;;;;;;;;;;5.70;99.90;;;;;;5011171;28;19920;-66
2021/11/22 00:54:47;;;;;;;;;;;5.70;99.90;;;;;;5011392;28;19909;-64
2021/11/22 00:57:12;;;;;;;;;;;5.70;99.90;;;;;;5009645;28;20004;-65
2021/11/22 00:59:38;;;;;;;;;;;5.60;99.90;;;;;;5010265;28;20374;-65
2021/11/22 01:02:03;;;;;;;;;;;5.60;99.90;;;;;;5012058;28;19963;-64
2021/11/22 01:04:29;;;;;;;;;;;5.60;99.90;;;;;;4994333;28;19925;-67
2021/11/22 01:06:54;;;;;;;;;;;5.60;99.90;;;;;;5011748;28;20397;-64
2021/11/22 01:09:20;;;;;;;;;;;5.60;99.90;;;;;;5030892;28;19992;-63
2021/11/22 01:11:46;;;;;;;;;;;5.60;99.90;;;;;;5016408;28;20381;-65
2021/11/22 01:14:12;;;;;;;;;;;5.60;99.90;;;;;;5011123;28;19909;-65
2021/11/22 01:16:38;;;;;;;;;;;5.50;99.90;;;;;;4999934;28;20421;-65
2021/11/22 01:19:04;;;;;;;;;;;5.50;99.90;;;;;;5010507;28;19917;-66
2021/11/22 01:21:29;;;;;;;;;;;5.60;99.90;;;;;;5040879;28;20004;-64
2021/11/22 01:23:55;;;;;;;;;;;5.60;99.90;;;;;;5022162;28;20063;-65
2021/11/22 01:26:20;;;;;;;;;;;5.60;99.90;;;;;;4996947;28;19914;-65
2021/11/22 01:28:46;;;;;;;;;;;5.50;99.90;;;;;;4991390;28;20000;-64
2021/11/22 01:31:12;;;;;;;;;;;5.50;99.90;;;;;;5002601;28;19917;-65
2021/11/22 01:33:37;;;;;;;;;;;5.40;99.90;;;;;;5003643;28;19941;-66
2021/11/22 01:36:03;;;;;;;;;;;5.40;99.90;;;;;;5010429;28;19920;-65
2021/11/22 01:38:28;;;;;;;;;;;5.40;99.90;;;;;;5010424;28;19937;-67
2021/11/22 01:40:54;;;;;;;;;;;5.40;99.90;;;;;;5010239;28;19953;-65
2021/11/22 01:43:19;;;;;;;;;;;5.40;99.90;;;;;;5008870;28;19914;-62
2021/11/22 01:45:46;;;;;;;;;;;5.40;99.90;;;;;;5010918;28;20027;-65
2021/11/22 01:48:12;;;;;;;;;;;5.40;99.90;;;;;;5007963;28;20297;-65
2021/11/22 01:50:38;;;;;;;;;;;5.30;99.90;;;;;;5010168;28;19910;-67
2021/11/22 01:53:04;;;;;;;;;;;5.30;99.90;;;;;;5010883;28;19993;-67
2021/11/22 01:55:30;;;;;;;;;;;5.40;99.90;;;;;;5005896;28;20004;-64
2021/11/22 01:57:56;;;;;;;;;;;5.40;99.90;;;;;;5014571;28;20514;-66
2021/11/22 02:00:27;;;;;;;;;;;5.40;99.90;;;;;;5024680;28;19987;-65
2021/11/22 02:02:53;;;;;;;;;;;5.40;99.90;;;;;;5007079;28;19913;-65
2021/11/22 02:05:19;;;;;;;;;;;5.30;99.90;;;;;;5031527;28;19909;-66
2021/11/22 02:07:45;;;;;;;;;;;5.30;99.90;;;;;;5025698;28;20397;-64
2021/11/22 02:10:11;;;;;;;;;;;5.20;99.90;;;;;;5031010;28;19970;-67
2021/11/22 02:12:37;;;;;;;;;;;5.20;99.90;;;;;;4997465;28;19921;-65
2021/11/22 02:15:04;;;;;;;;;;;5.10;99.90;;;;;;4998581;28;20020;-65
2021/11/22 02:17:29;;;;;;;;;;;5.10;99.90;;;;;;5017137;28;20367;-65
2021/11/22 02:19:56;;;;;;;;;;;5.00;99.90;;;;;;4998621;28;19916;-64
2021/11/22 02:22:22;;;;;;;;;;;5.10;99.90;;;;;;5019359;28;19909;-65
2021/11/22 02:24:48;;;;;;;;;;;5.10;99.90;;;;;;5009724;28;19920;-66
2021/11/22 02:27:14;;;;;;;;;;;5.00;99.90;;;;;;5008988;28;20540;-65
2021/11/22 02:29:39;;;;;;;;;;;5.00;99.90;;;;;;5008726;28;19924;-65
2021/11/22 02:32:05;;;;;;;;;;;5.00;99.90;;;;;;5005022;28;20000;-66
2021/11/22 02:34:30;;;;;;;;;;;5.00;99.90;;;;;;5029458;28;19955;-66
2021/11/22 02:36:56;;;;;;;;;;;5.00;99.90;;;;;;5022227;28;20141;-65
2021/11/22 02:39:21;;;;;;;;;;;5.00;99.90;;;;;;5003564;28;20404;-65
2021/11/22 02:41:47;;;;;;;;;;;5.00;99.90;;;;;;5014460;28;19923;-67
2021/11/22 02:44:13;;;;;;;;;;;4.90;99.90;;;;;;5009119;28;20004;-66
2021/11/22 02:46:39;;;;;;;;;;;4.90;99.90;;;;;;5003478;28;20013;-64
2021/11/22 02:49:04;;;;;;;;;;;4.90;99.90;;;;;;5008719;28;19963;-64
2021/11/22 02:51:29;;;;;;;;;;;4.90;99.90;;;;;;5009151;28;19918;-65
2021/11/22 02:53:59;;;;;;;;;;;4.90;99.90;;;;;;5005816;28;19957;-66
2021/11/22 02:56:28;;;;;;;;;;;4.80;99.90;;;;;;4989929;28;19917;-66
2021/11/22 02:58:54;;;;;;;;;;;4.90;99.90;;;;;;5006894;28;20086;-66
2021/11/22 03:01:19;;;;;;;;;;;4.80;99.90;;;;;;5009196;28;19918;-65
2021/11/22 03:03:44;;;;;;;;;;;4.80;99.90;;;;;;5018139;28;19921;-64
2021/11/22 03:06:11;;;;;;;;;;;4.80;99.90;;;;;;5011405;28;19913;-66
2021/11/22 03:08:38;;;;;;;;;;;4.80;99.90;;;;;;5017093;28;20320;-66
2021/11/22 03:11:03;;;;;;;;;;;4.80;99.90;;;;;;5008992;28;19914;-65
2021/11/22 03:13:29;;;;;;;;;;;4.80;99.90;;;;;;5008297;28;19940;-66
2021/11/22 03:15:54;;;;;;;;;;;4.70;99.90;;;;;;5008041;28;19952;-65
2021/11/22 03:18:20;;;;;;;;;;;4.70;99.90;;;;;;4992927;28;19918;-65
2021/11/22 03:20:45;;;;;;;;;;;4.70;99.90;;;;;;5010692;28;20028;-65
2021/11/22 03:23:11;;;;;;;;;;;4.70;99.90;;;;;;5014710;28;19938;-64
2021/11/22 03:25:36;;;;;;;;;;;4.60;99.90;;;;;;5023680;28;19913;-66
2021/11/22 03:28:02;;;;;;;;;;;4.60;99.90;;;;;;5028066;28;19948;-65
2021/11/22 03:30:27;;;;;;;;;;;4.60;99.90;;;;;;5023601;28;19914;-64
2021/11/22 03:32:53;;;;;;;;;;;4.70;99.90;;;;;;5005347;28;19909;-65
2021/11/22 03:35:18;;;;;;;;;;;4.70;99.90;;;;;;5013451;28;19963;-66
2021/11/22 03:37:44;;;;;;;;;;;4.70;99.90;;;;;;5011824;28;20437;-65
2021/11/22 03:40:10;;;;;;;;;;;4.70;99.90;;;;;;5018582;28;19913;-67
2021/11/22 03:42:54;;;;;;;;;;;4.60;99.90;;;;;;5028273;28;20386;-66
2021/11/22 03:45:20;;;;;;;;;;;4.60;99.90;;;;;;5021860;28;19921;-65
2021/11/22 03:47:45;;;;;;;;;;;4.60;99.90;;;;;;5007994;28;19936;-65
2021/11/22 03:50:11;;;;;;;;;;;4.60;99.90;;;;;;5007842;28;19977;-66
2021/11/22 03:52:36;;;;;;;;;;;4.60;99.90;;;;;;5010052;28;19917;-65
2021/11/22 03:55:03;;;;;;;;;;;4.60;99.90;;;;;;5013747;28;19913;-65
2021/11/22 03:57:28;;;;;;;;;;;4.60;99.90;;;;;;5030050;28;19974;-65
2021/11/22 03:59:57;;;;;;;;;;;4.60;99.90;;;;;;5029904;28;19913;-65
2021/11/22 04:02:23;;;;;;;;;;;4.60;99.90;;;;;;5012445;28;19981;-64
2021/11/22 04:04:48;;;;;;;;;;;4.60;99.90;;;;;;4996641;28;20013;-65
2021/11/22 04:07:14;;;;;;;;;;;4.60;99.90;;;;;;5015565;28;19952;-65
2021/11/22 04:09:39;;;;;;;;;;;4.60;99.90;;;;;;5029705;28;20012;-66
2021/11/22 04:12:05;;;;;;;;;;;4.60;99.90;;;;;;5028451;28;19909;-64
2021/11/22 04:14:30;;;;;;;;;;;4.60;99.90;;;;;;5007083;28;19913;-66
2021/11/22 04:16:56;;;;;;;;;;;4.60;99.90;;;;;;5003464;28;19985;-66
2021/11/22 04:19:21;;;;;;;;;;;4.60;99.90;;;;;;5000888;28;19924;-64
2021/11/22 04:21:47;;;;;;;;;;;4.60;99.90;;;;;;5008355;28;20301;-65
2021/11/22 04:24:12;;;;;;;;;;;4.60;99.90;;;;;;5008731;28;19940;-65
2021/11/22 04:26:38;;;;;;;;;;;4.50;99.90;;;;;;4994392;28;19944;-64
2021/11/22 04:29:03;;;;;;;;;;;4.50;99.90;;;;;;4992843;28;19917;-64
2021/11/22 04:31:29;;;;;;;;;;;4.50;99.90;;;;;;5010403;28;20405;-64
2021/11/22 04:33:54;;;;;;;;;;;4.50;99.90;;;;;;5012338;28;20500;-65
2021/11/22 04:36:20;;;;;;;;;;;4.40;99.90;;;;;;5012277;28;19920;-63
2021/11/22 04:38:45;;;;;;;;;;;4.40;99.90;;;;;;5016283;28;19945;-66
2021/11/22 04:41:11;;;;;;;;;;;4.40;99.90;;;;;;5027059;28;19932;-65
2021/11/22 04:43:36;;;;;;;;;;;4.30;99.90;;;;;;5031194;28;20388;-64
2021/11/22 04:46:02;;;;;;;;;;;4.40;99.90;;;;;;4993003;28;19945;-66
2021/11/22 04:48:27;;;;;;;;;;;4.40;99.90;;;;;;5001829;28;19914;-65
2021/11/22 04:50:53;;;;;;;;;;;4.30;99.90;;;;;;5011845;28;19936;-66
2021/11/22 04:53:19;;;;;;;;;;;4.30;99.90;;;;;;5011878;28;19910;-64
2021/11/22 04:55:44;;;;;;;;;;;4.30;99.90;;;;;;5012498;28;19909;-65
2021/11/22 04:58:09;;;;;;;;;;;4.30;99.90;;;;;;5011393;28;19914;-66
2021/11/22 05:00:35;;;;;;;;;;;4.30;99.90;;;;;;4993239;28;20004;-66
2021/11/22 05:03:01;;;;;;;;;;;4.30;99.90;;;;;;5002192;28;19961;-65
2021/11/22 05:05:26;;;;;;;;;;;4.30;99.90;;;;;;5003960;28;19917;-64
2021/11/22 05:07:52;;;;;;;;;;;4.30;99.90;;;;;;5012723;28;20392;-66
2021/11/22 05:10:19;;;;;;;;;;;4.30;99.90;;;;;;5010037;28;20550;-66
2021/11/22 05:12:45;;;;;;;;;;;4.30;99.90;;;;;;5010439;28;19916;-65
2021/11/22 05:15:10;;;;;;;;;;;4.30;99.90;;;;;;5005771;28;20012;-66
2021/11/22 05:17:36;;;;;;;;;;;4.30;99.90;;;;;;5002853;28;19936;-65
2021/11/22 05:20:03;;;;;;;;;;;4.30;99.90;;;;;;5005575;28;19910;-65
2021/11/22 05:22:28;;;;;;;;;;;4.30;99.90;;;;;;5010015;28;19963;-65
2021/11/22 05:24:54;;;;;;;;;;;4.30;99.90;;;;;;5005510;28;19917;-65
2021/11/22 05:27:28;;;;;;;;;;;4.30;99.90;;;;;;5003250;28;20036;-65
2021/11/22 05:29:54;;;;;;;;;;;4.20;99.90;;;;;;5002291;28;19917;-66
2021/11/22 05:32:19;;;;;;;;;;;4.20;99.90;;;;;;5001773;28;19921;-64
2021/11/22 05:34:46;;;;;;;;;;;4.30;99.90;;;;;;5008000;28;19910;-65
2021/11/22 05:37:11;;;;;;;;;;;4.30;99.90;;;;;;5004538;28;19916;-65
2021/11/22 05:39:37;;;;;;;;;;;4.20;99.90;;;;;;5006211;28;19910;-65
2021/11/22 05:42:03;;;;;;;;;;;4.20;99.90;;;;;;4996858;28;19917;-65
2021/11/22 05:44:31;;;;;;;;;;;4.20;99.90;;;;;;5000080;28;19929;-65
2021/11/22 05:46:57;;;;;;;;;;;4.20;99.90;;;;;;5000740;28;19913;-66
2021/11/22 05:49:22;;;;;;;;;;;4.20;99.90;;;;;;4998504;28;19917;-65
2021/11/22 05:51:48;;;;;;;;;;;4.20;99.90;;;;;;5003448;28;19924;-65
2021/11/22 05:54:13;;;;;;;;;;;4.20;99.90;;;;;;5005165;28;19949;-66
2021/11/22 05:56:39;;;;;;;;;;;4.20;99.90;;;;;;5002732;28;20372;-65
2021/11/22 05:59:04;;;;;;;;;;;4.10;99.90;;;;;;4997844;28;19917;-64
2021/11/22 06:01:30;;;;;;;;;;;4.10;99.90;;;;;;5000779;28;19928;-65
2021/11/22 06:03:56;;;;;;;;;;;4.20;99.90;;;;;;5006959;28;20396;-65
2021/11/22 06:06:21;;;;;;;;;;;4.10;99.90;;;;;;5021696;28;19913;-66
2021/11/22 06:08:47;;;;;;;;;;;4.10;99.90;;;;;;5010167;28;19919;-64
2021/11/22 06:11:12;;;;;;;;;;;4.10;99.90;;;;;;4995778;28;19925;-65
2021/11/22 06:13:38;;;;;;;;;;;4.10;99.90;;;;;;4995851;28;20390;-64
2021/11/22 06:16:03;;;;;;;;;;;4.10;99.90;;;;;;5003365;28;19998;-64
2021/11/22 06:18:29;;;;;;;;;;;4.10;99.90;;;;;;5020009;28;19959;-63
2021/11/22 06:20:55;;;;;;;;;;;4.00;99.90;;;;;;5029706;28;19948;-64
2021/11/22 06:23:20;;;;;;;;;;;4.00;99.90;;;;;;5014715;28;20637;-65
2021/11/22 06:25:46;;;;;;;;;;;4.00;99.90;;;;;;5002222;28;19944;-65
2021/11/22 06:28:11;;;;;;;;;;;4.10;99.90;;;;;;5013508;28;20021;-64
2021/11/22 06:30:37;;;;;;;;;;;4.00;99.90;;;;;;5018979;28;20332;-65
2021/11/22 06:33:02;;;;;;;;;;;4.00;99.90;;;;;;5006513;28;19913;-64
2021/11/22 06:35:28;;;;;;;;;;;3.90;99.90;;;;;;5002780;28;19928;-65
2021/11/22 06:37:53;;;;;;;;;;;3.90;99.90;;;;;;4995742;28;20281;-65
2021/11/22 06:40:20;;;;;;;;;;;3.90;99.90;;;;;;5004150;28;20280;-65
2021/11/22 06:42:45;;;;;;;;;;;3.80;99.90;;;;;;5003784;28;19917;-64
2021/11/22 06:45:11;;;;;;;;;;;3.80;99.90;;;;;;5000476;28;19928;-64
2021/11/22 06:47:37;;;;;;;;;;;3.90;99.90;;;;;;4999787;28;19960;-66
2021/11/22 06:50:03;;;;;;;;;;;3.90;99.90;;;;;;5003110;28;20111;-65
2021/11/22 06:52:29;;;;;;;;;;;3.90;99.90;;;;;;5002070;28;20418;-64
2021/11/22 06:54:56;;;;;;;;;;;3.90;99.90;;;;;;5002385;28;19964;-66
2021/11/22 06:57:22;;;;;;;;;;;3.80;99.90;;;;;;5002151;28;19913;-64
2021/11/22 06:59:47;;;;;;;;;;;3.80;99.90;;;;;;5000531;28;19972;-64
2021/11/22 07:02:15;;;;;;;;;;;3.80;99.90;;;;;;4995202;28;19913;-64
2021/11/22 07:04:41;;;;;;;;;;;3.80;99.90;;;;;;5014385;28;20017;-68
2021/11/22 07:07:07;;;;;;;;;;;3.80;99.90;;;;;;5014105;28;20000;-64
2021/11/22 07:09:32;;;;;;;;;;;3.80;99.90;;;;;;5008774;28;20580;-65
2021/11/22 07:11:58;;;;;;;;;;;3.80;99.90;;;;;;5000660;28;19914;-65
2021/11/22 07:14:23;;;;;;;;;;;3.80;99.90;;;;;;4989233;28;20019;-65
2021/11/22 07:16:51;;;;;;;;;;;3.90;99.90;;;;;;5009142;28;19910;-64
2021/11/22 07:19:17;;;;;;;;;;;4.00;99.90;;;;;;5009703;28;19909;-65
2021/11/22 07:21:42;;;;;;;;;;;4.00;99.90;;;;;;5009157;28;19925;-66
2021/11/22 07:24:08;;;;;;;;;;;4.00;99.90;;;;;;5008623;28;20358;-64
2021/11/22 07:26:33;;;;;;;;;;;4.00;99.90;;;;;;5007989;28;19943;-65
2021/11/22 07:28:59;;;;;;;;;;;4.00;99.90;;;;;;5007798;28;19952;-65
2021/11/22 07:31:24;;;;;;;;;;;3.90;99.90;;;;;;5014300;28;19920;-64
2021/11/22 07:33:50;;;;;;;;;;;3.90;99.90;;;;;;5008291;28;19920;-64
2021/11/22 07:36:15;;;;;;;;;;;3.90;99.90;;;;;;5008901;28;20348;-64
2021/11/22 07:38:41;;;;;;;;;;;3.90;99.90;;;;;;5008405;28;19914;-64
2021/11/22 07:41:06;;;;;;;;;;;3.80;99.90;;;;;;5010949;28;20243;-64
2021/11/22 07:43:32;;;;;;;;;;;3.80;99.90;;;;;;5007724;28;19963;-64
2021/11/22 07:45:58;;;;;;;;;;;3.90;99.90;;;;;;5008117;28;20622;-65
2021/11/22 07:48:24;;;;;;;;;;;4.00;99.90;;;;;;5008363;28;19923;-64
2021/11/22 07:50:49;;;;;;;;;;;4.00;99.90;;;;;;4995421;28;19913;-63
2021/11/22 07:53:15;;;;;;;;;;;4.00;99.90;;;;;;5017575;28;19941;-64
2021/11/22 07:55:40;;;;;;;;;;;4.00;99.90;;;;;;5022401;28;20398;-66
2021/11/22 07:58:06;;;;;;;;;;;4.00;99.90;;;;;;5021278;28;19914;-64
2021/11/22 08:00:31;;;;;;;;;;;4.00;99.90;;;;;;5014137;28;19968;-65
2021/11/22 08:02:57;;;;;;;;;;;4.00;99.90;;;;;;5004239;28;19921;-65
2021/11/22 08:05:23;;;;;;;;;;;4.00;99.90;;;;;;5004735;28;20000;-64
2021/11/22 08:07:53;;;;;;;;;;;4.00;99.90;;;;;;5003474;28;19909;-65
2021/11/22 08:12:46;;;;;;;;;;;4.10;99.90;;;;;;5003919;28;19914;-64
2021/11/22 08:15:13;;;;;;;;;;;4.10;99.90;;;;;;5002238;28;19988;-65
2021/11/22 08:17:40;;;;;;;;;;;4.10;99.90;;;;;;5006437;28;20063;-64
2021/11/22 08:20:09;;;;;;;;;;;4.10;99.90;;;;;;5025944;28;20388;-65
2021/11/22 08:22:35;;;;;;;;;;;4.20;99.90;;;;;;5027480;28;19913;-63
2021/11/22 08:25:00;;;;;;;;;;;4.30;99.90;;;;;;5020407;28;19921;-65
2021/11/22 08:27:28;;;;;;;;;;;4.30;99.90;;;;;;4988184;28;19921;-65
2021/11/22 08:29:54;;;;;;;;;;;4.30;99.90;;;;;;4987934;28;19910;-66
2021/11/22 08:32:19;;;;;;;;;;;4.30;99.90;;;;;;4998224;28;20285;-65
2021/11/22 08:34:45;;;;;;;;;;;4.40;99.90;;;;;;4988514;28;20286;-64
2021/11/22 08:37:11;;;;;;;;;;;4.40;99.90;;;;;;4988293;28;20000;-65
2021/11/22 08:39:36;;;;;;;;;;;4.40;99.90;;;;;;4989286;28;20150;-64
2021/11/22 08:42:02;;;;;;;;;;;4.50;99.90;;;;;;5008485;28;19916;-64
2021/11/22 08:44:28;;;;;;;;;;;4.50;99.90;;;;;;5008833;28;19955;-65
2021/11/22 08:46:54;;;;;;;;;;;4.60;99.90;;;;;;5017159;28;19915;-64
2021/11/22 08:49:20;;;;;;;;;;;4.70;99.90;;;;;;5008695;28;19910;-63
2021/11/22 08:51:45;;;;;;;;;;;4.70;99.90;;;;;;5009088;28;20504;-64
2021/11/22 08:54:11;;;;;;;;;;;4.80;99.90;;;;;;5008427;28;19914;-65
2021/11/22 08:56:36;;;;;;;;;;;4.80;99.90;;;;;;4989788;28;19909;-64
2021/11/22 08:59:02;;;;;;;;;;;4.90;99.90;;;;;;4989676;28;20289;-64
2021/11/22 09:01:28;;;;;;;;;;;4.90;99.90;;;;;;4989160;28;19964;-65
2021/11/22 09:03:55;;;;;;;;;;;4.90;99.90;;;;;;4991147;28;19969;-64
2021/11/22 09:06:20;;;;;;;;;;;4.90;99.90;;;;;;5003377;28;19993;-65
2021/11/22 09:08:46;;;;;;;;;;;5.00;99.90;;;;;;5009745;28;19956;-66
2021/11/22 09:11:12;;;;;;;;;;;5.00;99.90;;;;;;5007374;28;19921;-65
2021/11/22 09:13:39;;;;;;;;;;;5.10;99.90;;;;;;5012943;28;19910;-65
2021/11/22 09:16:04;;;;;;;;;;;5.10;99.90;;;;;;5010238;28;20005;-64
2021/11/22 09:18:30;;;;;;;;;;;5.10;99.90;;;;;;5001975;28;19996;-65
2021/11/22 09:20:55;;;;;;;;;;;5.20;99.90;;;;;;5014894;28;19913;-67
2021/11/22 09:23:20;;;;;;;;;;;5.20;99.90;;;;;;5005710;28;19918;-65
2021/11/22 09:25:46;;;;;;;;;;;5.30;99.90;;;;;;5004125;28;19920;-66
2021/11/22 09:28:11;;;;;;;;;;;5.30;99.90;;;;;;5003354;28;19986;-67
2021/11/22 09:30:37;;;;;;;;;;;5.40;99.90;;;;;;5009283;28;20446;-65
2021/11/22 09:33:04;;;;;;;;;;;5.40;99.90;;;;;;5021341;28;19920;-65
2021/11/22 09:35:29;;;;;;;;;;;5.40;99.90;;;;;;5031325;28;19931;-65
2021/11/22 09:37:55;;;;;;;;;;;5.40;99.90;;;;;;5033895;28;19909;-65
2021/11/22 09:40:21;;;;;;;;;;;5.50;99.90;;;;;;4998645;28;20333;-65
2021/11/22 09:42:47;;;;;;;;;;;5.60;99.90;;;;;;4992421;28;19913;-64
2021/11/22 09:45:13;;;;;;;;;;;5.60;99.90;;;;;;4991693;28;19918;-64
2021/11/22 09:47:38;;;;;;;;;;;5.70;99.90;;;;;;4991936;28;20050;-64
2021/11/22 09:50:06;;;;;;;;;;;5.60;99.90;;;;;;5008163;28;19910;-65
2021/11/22 09:52:32;;;;;;;;;;;5.70;99.90;;;;;;5011343;28;19945;-65
2021/11/22 09:54:58;;;;;;;;;;;5.80;99.90;;;;;;5009342;28;19940;-65
2021/11/22 09:57:23;;;;;;;;;;;5.90;99.90;;;;;;5010301;28;20004;-64
2021/11/22 09:59:49;;;;;;;;;;;6.00;99.90;;;;;;5010421;28;20434;-65
2021/11/22 10:02:14;;;;;;;;;;;6.00;99.90;;;;;;5010242;28;19917;-64
2021/11/22 10:04:40;;;;;;;;;;;6.10;99.90;;;;;;5009230;28;19917;-65
2021/11/22 10:07:07;;;;;;;;;;;6.20;99.90;;;;;;5004590;28;19914;-65
2021/11/22 10:09:32;;;;;;;;;;;6.30;99.90;;;;;;5002345;28;20369;-65
2021/11/22 10:12:08;;;;;;;;;;;6.30;99.90;;;;;;5000675;28;19910;-65
2021/11/22 10:14:35;;;;;;;;;;;6.40;99.90;;;;;;5000133;28;20433;-65
2021/11/22 10:17:00;;;;;;;;;;;6.50;99.90;;;;;;5020088;28;19909;-67
2021/11/22 10:19:26;;;;;;;;;;;6.60;99.90;;;;;;5020102;28;19909;-64
2021/11/22 10:21:52;;;;;;;;;;;6.70;99.90;;;;;;5019903;28;20007;-66
2021/11/22 10:24:17;;;;;;;;;;;6.90;99.90;;;;;;5010031;28;20163;-64
2021/11/22 10:26:50;;;;;;;;;;;6.90;99.90;;;;;;5003412;28;19917;-65
2021/11/22 10:29:25;;;;;;;;;;;7.00;99.90;;;;;;5011493;28;19909;-65
2021/11/22 10:31:55;;;;;;;;;;;6.90;99.90;;;;;;5001701;28;19910;-64
2021/11/22 10:34:21;;;;;;;;;;;6.90;99.90;;;;;;5011298;28;20320;-65
2021/11/22 10:36:54;;;;;;;;;;;6.80;99.90;;;;;;5007679;28;19924;-66
2021/11/22 10:39:21;;;;;;;;;;;6.80;99.90;;;;;;5006644;28;19914;-66
2021/11/22 10:41:46;;;;;;;;;;;6.80;99.90;;;;;;5008570;28;19964;-67
2021/11/22 10:44:13;;;;;;;;;;;6.70;99.90;;;;;;5010316;28;20432;-64
2021/11/22 10:46:44;;;;;;;;;;;6.70;99.90;;;;;;5016913;28;19941;-66
2021/11/22 10:49:13;;;;;;;;;;;6.80;99.90;;;;;;5003458;28;19992;-66
2021/11/22 10:51:44;;;;;;;;;;;6.70;99.90;;;;;;5002717;28;20024;-66
2021/11/22 10:54:10;;;;;;;;;;;6.90;99.90;;;;;;5003583;28;19925;-67
2021/11/22 10:56:41;;;;;;;;;;;7.00;99.90;;;;;;5001049;28;20004;-67
2021/11/22 10:59:08;;;;;;;;;;;7.10;99.90;;;;;;5001855;28;20358;-65
2021/11/22 11:01:33;;;;;;;;;;;7.20;99.90;;;;;;4999845;28;19905;-66
2021/11/22 11:04:08;;;;;;;;;;;7.40;99.90;;;;;;5003254;28;19925;-67
2021/11/22 11:06:34;;;;;;;;;;;7.50;99.90;;;;;;5010767;28;20016;-67
2021/11/22 11:09:00;;;;;;;;;;;7.90;99.90;;;;;;5003039;28;20012;-66
2021/11/22 11:11:26;;;;;;;;;;;8.40;99.90;;;;;;5002271;28;19912;-67
2021/11/22 11:13:52;;;;;;;;;;;8.20;99.90;;;;;;5004229;28;19913;-67
2021/11/22 11:16:18;;;;;;;;;;;7.90;99.90;;;;;;5003524;28;20019;-66
2021/11/22 11:19:04;;;;;;;;;;;8.10;99.90;;;;;;5004805;28;19940;-66
2021/11/22 11:21:31;;;;;;;;;;;8.80;99.90;;;;;;5010263;28;19910;-67
2021/11/22 11:23:58;;;;;;;;;;;9.50;99.90;;;;;;5009521;28;19941;-66
2021/11/22 11:26:24;;;;;;;;;;;9.70;99.90;;;;;;5012178;28;19920;-66
2021/11/22 11:28:50;;;;;;;;;;;9.50;99.90;;;;;;5002223;28;19909;-66
2021/11/22 11:31:16;;;;;;;;;;;9.20;99.90;;;;;;5004102;28;19993;-66
2021/11/22 11:33:41;;;;;;;;;;;9.10;99.90;;;;;;4997157;28;20028;-67
2021/11/22 11:36:30;;;;;;;;;;;9.10;99.90;;;;;;5003187;28;19956;-65
2021/11/22 11:39:01;;;;;;;;;;;9.00;99.90;;;;;;5000354;28;19909;-66
2021/11/22 11:41:30;;;;;;;;;;;9.10;99.90;;;;;;4998993;28;19910;-66
2021/11/22 11:44:14;;;;;;;;;;;9.60;99.90;;;;;;4996921;28;19941;-66
2021/11/22 11:46:45;;;;;;;;;;;9.50;99.90;;;;;;5002500;28;20001;-66
2021/11/22 11:49:12;;;;;;;;;;;9.50;99.90;;;;;;5019463;28;19921;-65
2021/11/22 11:51:46;;;;;;;;;;;9.70;99.90;;;;;;5004506;28;20342;-66
2021/11/22 11:54:17;;;;;;;;;;;9.60;99.90;;;;;;5005945;28;20664;-65
2021/11/22 11:56:45;;;;;;;;;;;9.40;99.90;;;;;;5008811;28;19949;-66
2021/11/22 11:59:12;;;;;;;;;;;9.80;99.90;;;;;;5006665;28;19914;-66
2021/11/22 12:01:54;;;;;;;;;;;10.00;99.90;;;;;;5007810;28;19972;-67
2021/11/22 12:04:19;;;;;;;;;;;10.20;99.90;;;;;;5007749;28;20008;-67
2021/11/22 12:06:46;;;;;;;;;;;10.20;99.90;;;;;;4999802;28;20008;-66
2021/11/22 12:09:31;;;;;;;;;;;10.40;99.90;;;;;;4988231;28;19960;-66
2021/11/22 12:12:00;;;;;;;;;;;10.60;99.90;;;;;;4988332;28;19917;-65
2021/11/22 12:14:45;;;;;;;;;;;10.80;99.90;;;;;;4988111;28;19996;-68
2021/11/22 12:17:10;;;;;;;;;;;10.00;99.90;;;;;;4989281;28;19990;-67
2021/11/22 12:19:39;;;;;;;;;;;9.50;99.90;;;;;;5001154;28;20382;-65
2021/11/22 12:22:10;;;;;;;;;;;9.30;99.90;;;;;;4991338;28;19920;-66
2021/11/22 12:24:39;;;;;;;;;;;9.70;99.90;;;;;;4988720;28;19917;-67
2021/11/22 12:27:24;;;;;;;;;;;9.90;99.90;;;;;;4989220;28;19910;-66
2021/11/22 12:29:49;;;;;;;;;;;9.80;99.90;;;;;;4989944;28;19910;-66
2021/11/22 12:32:23;;;;;;;;;;;10.10;99.90;;;;;;5013905;28;19917;-67
2021/11/22 12:34:54;;;;;;;;;;;10.20;99.90;;;;;;5009187;28;19910;-65
2021/11/22 12:37:24;;;;;;;;;;;10.10;99.90;;;;;;4990330;28;20001;-66
2021/11/22 12:39:50;;;;;;;;;;;9.90;99.90;;;;;;4988936;28;19913;-66
2021/11/22 12:42:17;;;;;;;;;;;9.40;99.90;;;;;;4989806;28;19909;-65
2021/11/22 12:45:19;;;;;;;;;;;9.30;99.90;;;;;;5018971;28;19921;-64
2021/11/22 12:47:45;;;;;;;;;;;8.90;99.90;;;;;;4969791;28;20422;-65
2021/11/22 12:50:12;;;;;;;;;;;8.60;99.90;;;;;;4998223;28;19917;-66
2021/11/22 12:52:38;;;;;;;;;;;8.40;99.90;;;;;;5007629;28;19949;-65
2021/11/22 12:55:04;;;;;;;;;;;8.40;99.90;;;;;;4992846;28;20282;-65
2021/11/22 12:57:37;;;;;;;;;;;8.40;99.90;;;;;;4999280;28;19917;-65
2021/11/22 13:00:06;;;;;;;;;;;8.60;99.90;;;;;;5006034;28;19917;-65
2021/11/22 13:02:38;;;;;;;;;;;8.60;99.90;;;;;;5023175;28;19914;-66
2021/11/22 13:05:04;;;;;;;;;;;8.40;99.90;;;;;;5016805;28;20331;-66
2021/11/22 13:07:36;;;;;;;;;;;8.40;99.90;;;;;;5026962;28;20426;-64
2021/11/22 13:10:06;;;;;;;;;;;8.30;99.90;;;;;;5032745;28;19913;-65
2021/11/22 13:12:32;;;;;;;;;;;8.40;99.90;;;;;;5032504;28;19915;-66
2021/11/22 13:15:12;;;;;;;;;;;8.50;99.90;;;;;;5034339;28;20340;-66
2021/11/22 13:17:37;;;;;;;;;;;8.50;99.90;;;;;;5031670;28;19909;-69
2021/11/22 13:20:03;;;;;;;;;;;8.50;99.90;;;;;;5020019;28;20312;-65
2021/11/22 13:22:29;;;;;;;;;;;8.50;99.90;;;;;;4991937;28;19963;-66
2021/11/22 13:24:54;;;;;;;;;;;8.50;99.90;;;;;;4989868;28;19914;-66
2021/11/22 13:27:20;;;;;;;;;;;8.50;99.90;;;;;;4991746;28;19910;-65
2021/11/22 13:29:45;;;;;;;;;;;8.40;99.90;;;;;;4991533;28;19916;-67
2021/11/22 13:32:11;;;;;;;;;;;8.30;99.90;;;;;;5030875;28;19924;-67
2021/11/22 13:34:36;;;;;;;;;;;8.30;99.90;;;;;;5007299;28;20041;-67
2021/11/22 13:37:03;;;;;;;;;;;8.30;99.90;;;;;;5009229;28;20007;-67
2021/11/22 13:39:30;;;;;;;;;;;8.40;99.90;;;;;;5003008;28;19917;-67
2021/11/22 13:42:00;;;;;;;;;;;8.50;99.90;;;;;;5002991;28;20375;-67
2021/11/22 13:44:27;;;;;;;;;;;8.40;99.90;;;;;;5000104;28;19918;-67
2021/11/22 13:47:00;;;;;;;;;;;8.30;99.90;;;;;;5017038;28;20377;-67
2021/11/22 13:49:26;;;;;;;;;;;8.30;99.90;;;;;;5006392;28;19909;-68
2021/11/22 13:51:51;;;;;;;;;;;8.40;99.90;;;;;;5004360;28;19917;-66
2021/11/22 13:54:19;;;;;;;;;;;8.40;99.90;;;;;;5006907;28;19916;-66
2021/11/22 13:56:57;;;;;;;;;;;8.50;99.90;;;;;;5002901;28;20266;-67
2021/11/22 13:59:25;;;;;;;;;;;8.50;99.90;;;;;;5004172;28;20353;-67
2021/11/22 14:01:52;;;;;;;;;;;8.50;99.90;;;;;;5000042;28;19924;-67
2021/11/22 14:04:18;;;;;;;;;;;8.60;99.90;;;;;;5000223;28;19925;-67
2021/11/22 14:06:44;;;;;;;;;;;8.70;99.90;;;;;;5007619;28;20285;-68
2021/11/22 14:09:10;;;;;;;;;;;8.80;99.90;;;;;;5003013;28;19909;-68
2021/11/22 14:11:35;;;;;;;;;;;8.60;99.90;;;;;;5022374;28;19917;-67
2021/11/22 14:14:01;;;;;;;;;;;8.50;99.90;;;;;;5035083;28;19966;-65
2021/11/22 14:16:28;;;;;;;;;;;8.50;99.90;;;;;;5038473;28;19909;-67
2021/11/22 14:18:54;;;;;;;;;;;8.30;99.90;;;;;;5032889;28;19921;-66
2021/11/22 14:21:27;;;;;;;;;;;8.20;99.90;;;;;;5027788;28;19909;-69
2021/11/22 14:24:05;;;;;;;;;;;8.20;99.90;;;;;;4994380;28;19980;-67
2021/11/22 14:26:33;;;;;;;;;;;8.30;99.90;;;;;;4993137;28;19948;-67
2021/11/22 14:29:06;;;;;;;;;;;8.30;99.90;;;;;;4997750;28;19914;-65